createdAt,value
2019-04-14T00:00:25.066Z,84.19
2019-04-14T00:03:00.076Z,83.89
2019-04-14T00:05:32.912Z,83.29
2019-04-14T00:08:02.441Z,83.01
2019-04-14T00:10:33.259Z,83.07
2019-04-14T00:13:03.073Z,81.09
2019-04-14T00:15:40.624Z,80.75
2019-04-14T00:18:05.444Z,81.31
2019-04-14T00:20:35.946Z,80.21
2019-04-14T00:23:06.568Z,79.99
2019-04-14T00:25:36.999Z,80.67
2019-04-14T00:28:07.362Z,79.90
2019-04-14T00:30:38.241Z,79.72
2019-04-14T00:33:10.675Z,79.75
2019-04-14T00:35:54.233Z,79.88
2019-04-14T00:38:26.014Z,79.95
2019-04-14T00:41:07.200Z,79.96
2019-04-14T00:43:39.597Z,80.47
2019-04-14T00:46:23.998Z,81.14
2019-04-14T00:48:54.058Z,80.49
2019-04-14T00:51:24.504Z,80.91
2019-04-14T00:53:55.666Z,80.97
2019-04-14T00:56:25.867Z,80.43
2019-04-14T00:58:56.175Z,81.09
2019-04-14T01:01:26.512Z,80.99
2019-04-14T01:03:56.970Z,80.51
2019-04-14T01:06:27.324Z,80.60
2019-04-14T01:08:57.591Z,79.78
2019-04-14T01:11:27.426Z,79.13
2019-04-14T01:13:57.336Z,79.51
2019-04-14T01:16:28.144Z,79.22
2019-04-14T01:18:58.175Z,79.23
2019-04-14T01:21:28.528Z,80.43
2019-04-14T01:23:58.909Z,81.54
2019-04-14T01:26:28.927Z,82.31
2019-04-14T01:28:59.356Z,82.65
2019-04-14T01:31:29.604Z,82.87
2019-04-14T01:33:59.781Z,83.02
2019-04-14T01:36:29.908Z,82.44
2019-04-14T01:39:00.342Z,82.10
2019-04-14T01:41:30.401Z,82.06
2019-04-14T01:44:00.398Z,82.22
2019-04-14T01:46:32.692Z,82.25
2019-04-14T01:49:02.868Z,81.59
2019-04-14T01:51:50.752Z,82.01
2019-04-14T01:54:38.751Z,81.81
2019-04-14T01:57:22.133Z,81.56
2019-04-14T01:59:52.512Z,81.61
2019-04-14T02:02:27.184Z,81.58
2019-04-14T02:04:57.574Z,82.02
2019-04-14T02:07:27.679Z,81.68
2019-04-14T02:09:57.654Z,81.12
2019-04-14T02:12:27.881Z,80.51
2019-04-14T02:14:58.282Z,80.34
2019-04-14T02:17:28.527Z,80.56
2019-04-14T02:19:58.961Z,79.44
2019-04-14T02:22:29.164Z,79.69
2019-04-14T02:24:59.283Z,80.01
2019-04-14T02:27:29.742Z,79.60
2019-04-14T02:30:00.350Z,79.83
2019-04-14T02:32:57.469Z,80.76
2019-04-14T02:35:28.520Z,81.46
2019-04-14T02:38:03.600Z,81.74
2019-04-14T02:40:40.980Z,81.73
2019-04-14T02:43:09.285Z,82.09
2019-04-14T02:48:20.424Z,80.44
2019-04-14T02:50:43.787Z,80.36
2019-04-14T02:53:15.190Z,80.12
2019-04-14T02:55:46.781Z,78.92
2019-04-14T02:58:20.370Z,78.15
2019-04-14T03:00:47.939Z,77.87
2019-04-14T03:03:27.838Z,78.57
2019-04-14T03:05:53.255Z,78.79
2019-04-14T03:18:47.075Z,79.61
2019-04-14T03:24:10.893Z,80.65
2019-04-14T03:26:47.417Z,80.91
2019-04-14T03:29:27.153Z,79.59
2019-04-14T03:32:15.016Z,80.45
2019-04-14T03:39:36.997Z,80.56
2019-04-14T03:42:01.276Z,81.22
2019-04-14T03:44:37.535Z,81.31
2019-04-14T03:47:08.709Z,81.70
2019-04-14T03:49:42.430Z,81.96
2019-04-14T03:54:32.842Z,81.34
2019-04-14T03:56:49.282Z,81.39
2019-04-14T03:59:19.722Z,81.95
2019-04-14T04:01:50.670Z,81.64
2019-04-14T04:04:20.697Z,80.91
2019-04-14T04:06:50.982Z,81.46
2019-04-14T04:09:23.575Z,81.39
2019-04-14T04:11:54.117Z,80.79
2019-04-14T04:14:24.628Z,80.48
2019-04-14T04:17:14.668Z,80.99
2019-04-14T04:20:05.328Z,80.57
2019-04-14T04:22:36.962Z,80.69
2019-04-14T04:25:09.434Z,80.53
2019-04-14T04:27:50.463Z,79.95
2019-04-14T04:30:31.828Z,80.30
2019-04-14T04:33:04.430Z,80.00
2019-04-14T04:35:41.920Z,80.45
2019-04-14T04:38:16.003Z,80.56
2019-04-14T04:40:46.193Z,81.54
2019-04-14T04:43:16.866Z,81.89
2019-04-14T04:45:47.387Z,81.98
2019-04-14T04:48:17.459Z,81.61
2019-04-14T04:50:49.999Z,81.77
2019-04-14T04:53:20.157Z,82.25
2019-04-14T04:55:50.422Z,82.77
2019-04-14T04:58:21.530Z,82.94
2019-04-14T05:00:54.167Z,82.98
2019-04-14T05:03:23.381Z,83.58
2019-04-14T05:06:28.662Z,83.65
2019-04-14T05:09:01.249Z,84.06
2019-04-14T05:11:52.588Z,84.07
2019-04-14T05:14:41.242Z,83.41
2019-04-14T05:17:12.568Z,83.95
2019-04-14T05:19:43.584Z,83.58
2019-04-14T05:22:16.111Z,83.22
2019-04-14T05:24:46.087Z,83.26
2019-04-14T05:27:16.717Z,83.26
2019-04-14T05:29:47.236Z,83.93
2019-04-14T05:32:17.459Z,84.10
2019-04-14T05:34:47.886Z,84.31
2019-04-14T05:37:18.237Z,84.58
2019-04-14T05:39:48.435Z,84.65
2019-04-14T05:42:22.045Z,84.98
2019-04-14T05:44:49.906Z,84.39
2019-04-14T05:47:19.805Z,84.87
2019-04-14T05:49:53.082Z,84.87
2019-04-14T05:52:21.244Z,85.08
2019-04-14T05:54:51.507Z,85.54
2019-04-14T05:57:21.988Z,85.71
2019-04-14T05:59:52.734Z,86.48
2019-04-14T06:02:22.631Z,86.45
2019-04-14T06:04:52.581Z,86.46
2019-04-14T06:07:22.361Z,87.33
2019-04-14T06:09:52.153Z,88.12
2019-04-14T06:12:21.927Z,88.08
2019-04-14T06:14:51.770Z,89.22
2019-04-14T06:17:21.510Z,89.68
2019-04-14T06:19:51.415Z,89.72
2019-04-14T06:22:21.325Z,90.15
2019-04-14T06:24:51.105Z,90.39
2019-04-14T06:27:21.061Z,90.93
2019-04-14T06:29:52.490Z,91.03
2019-04-14T06:32:24.022Z,90.26
2019-04-14T06:34:55.551Z,90.49
2019-04-14T06:37:36.407Z,90.95
2019-04-14T06:40:08.253Z,91.48
2019-04-14T06:42:38.091Z,91.50
2019-04-14T06:45:08.286Z,90.94
2019-04-14T06:47:38.134Z,90.46
2019-04-14T06:50:09.143Z,90.17
2019-04-14T06:52:39.061Z,90.25
2019-04-14T06:55:09.109Z,89.69
2019-04-14T06:57:38.979Z,89.28
2019-04-14T07:00:09.570Z,89.41
2019-04-14T07:02:39.572Z,88.43
2019-04-14T07:05:09.485Z,88.93
2019-04-14T07:07:39.349Z,88.40
2019-04-14T07:10:09.193Z,88.37
2019-04-14T07:12:39.037Z,87.74
2019-04-14T07:15:09.153Z,87.24
2019-04-14T07:17:38.995Z,86.98
2019-04-14T07:20:09.002Z,86.45
2019-04-14T07:22:38.843Z,86.88
2019-04-14T07:25:08.772Z,86.55
2019-04-14T07:27:38.676Z,85.07
2019-04-14T07:30:16.441Z,86.05
2019-04-14T07:32:47.979Z,85.39
2019-04-14T07:35:28.587Z,85.84
2019-04-14T07:38:01.158Z,85.34
2019-04-14T07:40:39.137Z,85.51
2019-04-14T07:43:27.073Z,85.12
2019-04-14T07:46:03.173Z,84.55
2019-04-14T07:48:39.187Z,83.43
2019-04-14T07:51:25.938Z,83.08
2019-04-14T07:53:57.322Z,82.70
2019-04-14T07:56:37.846Z,83.32
2019-04-14T07:59:21.285Z,83.28
2019-04-14T08:02:04.682Z,83.62
2019-04-14T08:04:36.088Z,82.23
2019-04-14T08:07:06.015Z,82.66
2019-04-14T08:09:35.934Z,81.62
2019-04-14T08:12:05.797Z,81.92
2019-04-14T08:14:35.829Z,81.60
2019-04-14T08:17:05.710Z,80.44
2019-04-14T08:19:37.261Z,81.09
2019-04-14T08:22:07.238Z,80.52
2019-04-14T08:24:37.203Z,80.25
2019-04-14T08:27:07.005Z,79.74
2019-04-14T08:29:36.940Z,79.25
2019-04-14T08:32:06.754Z,79.00
2019-04-14T08:34:36.781Z,79.39
2019-04-14T08:37:06.720Z,78.48
2019-04-14T08:39:36.503Z,78.91
2019-04-14T08:42:19.972Z,76.57
2019-04-14T08:47:56.658Z,77.76
2019-04-14T08:50:39.453Z,77.45
2019-04-14T08:53:13.345Z,78.26
2019-04-14T08:55:57.353Z,78.45
2019-04-14T08:58:29.066Z,77.55
2019-04-14T09:01:06.744Z,78.25
2019-04-14T09:03:49.743Z,77.48
2019-04-14T09:06:21.110Z,77.80
2019-04-14T09:09:09.218Z,78.73
2019-04-14T09:11:49.421Z,79.00
2019-04-14T09:14:19.161Z,78.15
2019-04-14T09:16:48.968Z,78.63
2019-04-14T09:19:18.712Z,78.66
2019-04-14T09:21:48.440Z,77.02
2019-04-14T09:24:18.269Z,76.17
2019-04-14T09:26:48.102Z,76.95
2019-04-14T09:29:17.931Z,77.27
2019-04-14T09:31:47.677Z,76.98
2019-04-14T09:34:17.452Z,75.91
2019-04-14T09:36:47.204Z,77.85
2019-04-14T09:39:17.132Z,76.87
2019-04-14T09:41:46.890Z,76.33
2019-04-14T09:44:16.644Z,77.60
2019-04-14T09:46:48.533Z,78.24
2019-04-14T09:49:18.295Z,78.63
2019-04-14T09:51:48.011Z,80.03
2019-04-14T09:54:17.683Z,80.20
2019-04-14T09:56:47.450Z,79.54
2019-04-14T09:59:17.240Z,77.48
2019-04-14T10:01:46.943Z,79.47
2019-04-14T10:04:16.800Z,79.51
2019-04-14T10:06:46.483Z,80.61
2019-04-14T10:09:16.264Z,80.23
2019-04-14T10:11:49.279Z,80.05
2019-04-14T10:14:17.582Z,80.15
2019-04-14T10:16:47.248Z,80.03
2019-04-14T10:19:17.087Z,80.16
2019-04-14T10:21:46.881Z,80.85
2019-04-14T10:24:16.722Z,80.70
2019-04-14T10:26:46.549Z,81.76
2019-04-14T10:29:16.346Z,81.52
2019-04-14T10:31:46.162Z,82.25
2019-04-14T10:34:16.004Z,82.34
2019-04-14T10:36:45.755Z,82.22
2019-04-14T10:39:15.668Z,81.78
2019-04-14T10:41:45.539Z,82.47
2019-04-14T10:44:15.295Z,82.67
2019-04-14T10:46:45.113Z,82.70
2019-04-14T10:49:14.952Z,83.00
2019-04-14T10:51:44.731Z,83.00
2019-04-14T10:54:14.540Z,82.85
2019-04-14T10:56:44.365Z,82.72
2019-04-14T10:59:14.355Z,82.98
2019-04-14T11:01:44.280Z,82.56
2019-04-14T11:04:14.025Z,83.39
2019-04-14T11:06:51.610Z,82.99
2019-04-14T11:09:21.320Z,83.26
2019-04-14T11:11:51.098Z,82.36
2019-04-14T11:14:20.811Z,82.01
2019-04-14T11:16:50.732Z,80.09
2019-04-14T11:19:20.582Z,80.70
2019-04-14T11:21:50.603Z,80.89
2019-04-14T11:24:20.477Z,80.75
2019-04-14T11:26:50.470Z,80.67
2019-04-14T11:29:20.277Z,80.96
2019-04-14T11:31:51.682Z,80.93
2019-04-14T11:34:23.128Z,80.02
2019-04-14T11:37:06.296Z,79.09
2019-04-14T11:39:36.039Z,78.70
2019-04-14T11:42:05.853Z,79.21
2019-04-14T11:44:35.626Z,78.84
2019-04-14T11:47:08.697Z,77.72
2019-04-14T11:49:38.549Z,78.20
2019-04-14T11:52:08.444Z,77.86
2019-04-14T11:54:38.220Z,76.05
2019-04-14T11:57:08.149Z,77.46
2019-04-14T11:59:39.575Z,76.73
2019-04-14T12:02:11.102Z,77.63
2019-04-14T12:04:42.520Z,78.05
2019-04-14T12:07:25.893Z,78.29
2019-04-14T12:10:00.039Z,78.52
2019-04-14T12:12:30.001Z,77.21
2019-04-14T12:14:59.905Z,76.98
2019-04-14T12:17:31.491Z,75.92
2019-04-14T12:20:01.408Z,76.31
2019-04-14T12:22:31.306Z,77.06
2019-04-14T12:25:01.224Z,76.35
2019-04-14T12:27:30.960Z,76.82
2019-04-14T12:30:01.052Z,75.99
2019-04-14T12:32:31.353Z,76.39
2019-04-14T12:35:01.123Z,75.84
2019-04-14T12:37:30.867Z,75.68
2019-04-14T12:40:00.564Z,76.36
2019-04-14T12:42:32.056Z,76.21
2019-04-14T12:45:03.584Z,75.27
2019-04-14T12:47:39.899Z,74.80
2019-04-14T12:50:17.636Z,75.10
2019-04-14T12:52:47.524Z,76.11
2019-04-14T12:55:17.273Z,76.26
2019-04-14T12:57:51.158Z,75.99
2019-04-14T13:00:22.775Z,76.08
2019-04-14T13:02:56.251Z,75.88
2019-04-14T13:05:26.122Z,76.22
2019-04-14T13:07:55.883Z,76.36
2019-04-14T13:10:25.891Z,76.83
2019-04-14T13:12:55.624Z,76.08
2019-04-14T13:15:25.563Z,76.44
2019-04-14T13:17:55.476Z,76.94
2019-04-14T13:20:25.317Z,76.20
2019-04-14T13:22:55.085Z,76.25
2019-04-14T13:25:24.896Z,75.44
2019-04-14T13:27:54.820Z,75.34
2019-04-14T13:30:29.347Z,75.26
2019-04-14T13:32:59.341Z,74.94
2019-04-14T13:35:29.412Z,74.08
2019-04-14T13:37:59.400Z,74.26
2019-04-14T13:40:29.354Z,74.17
2019-04-14T13:42:59.272Z,74.44
2019-04-14T13:45:29.195Z,74.47
2019-04-14T13:47:58.973Z,73.87
2019-04-14T13:50:28.752Z,73.73
2019-04-14T13:53:01.075Z,73.38
2019-04-14T13:55:30.215Z,73.78
2019-04-14T13:58:00.040Z,73.86
2019-04-14T14:00:30.026Z,72.95
2019-04-14T14:03:00.069Z,72.79
2019-04-14T14:05:29.850Z,72.31
2019-04-14T14:07:59.638Z,72.79
2019-04-14T14:10:30.621Z,72.69
2019-04-14T14:13:17.164Z,73.45
2019-04-14T14:15:48.722Z,72.88
2019-04-14T14:18:23.133Z,71.88
2019-04-14T14:20:57.443Z,72.03
2019-04-14T14:23:28.881Z,71.29
2019-04-14T14:26:03.144Z,71.16
2019-04-14T14:28:33.026Z,71.02
2019-04-14T14:31:02.880Z,70.72
2019-04-14T14:33:32.655Z,69.82
2019-04-14T14:36:02.428Z,70.16
2019-04-14T14:38:32.209Z,70.09
2019-04-14T14:41:03.642Z,70.30
2019-04-14T14:43:33.435Z,70.67
2019-04-14T14:46:20.800Z,70.25
2019-04-14T14:49:07.265Z,68.91
2019-04-14T14:51:47.914Z,69.81
2019-04-14T14:54:17.869Z,69.47
2019-04-14T14:56:47.796Z,69.33
2019-04-14T14:59:17.589Z,68.56
2019-04-14T15:01:47.472Z,67.84
2019-04-14T15:04:19.002Z,68.37
2019-04-14T15:06:48.908Z,67.87
2019-04-14T15:09:18.747Z,67.38
2019-04-14T15:11:48.511Z,67.05
2019-04-14T15:14:18.366Z,65.12
2019-04-14T15:16:48.263Z,66.53
2019-04-14T15:19:18.161Z,67.02
2019-04-14T15:21:48.073Z,66.71
2019-04-14T15:24:17.902Z,67.18
2019-04-14T15:26:47.804Z,67.10
2019-04-14T15:29:17.595Z,65.81
2019-04-14T15:31:47.396Z,65.52
2019-04-14T15:34:17.127Z,66.09
2019-04-14T15:36:47.098Z,65.10
2019-04-14T15:39:16.846Z,64.24
2019-04-14T15:41:46.708Z,62.91
2019-04-14T15:44:16.468Z,61.98
2019-04-14T15:46:46.212Z,61.87
2019-04-14T15:49:15.987Z,61.26
2019-04-14T15:51:45.739Z,61.22
2019-04-14T15:54:15.506Z,61.52
2019-04-14T15:56:49.686Z,62.33
2019-04-14T15:59:30.084Z,61.75
2019-04-14T16:02:13.549Z,62.88
2019-04-14T16:04:47.846Z,63.37
2019-04-14T16:07:27.970Z,62.65
2019-04-14T16:10:08.200Z,63.09
2019-04-14T16:12:48.500Z,63.58
2019-04-14T16:15:19.867Z,62.84
2019-04-14T16:17:54.195Z,63.09
2019-04-14T16:20:28.200Z,62.70
2019-04-14T16:22:58.007Z,62.91
2019-04-14T16:25:39.526Z,63.23
2019-04-14T16:28:10.968Z,63.69
2019-04-14T16:31:00.548Z,64.08
2019-04-14T16:33:31.903Z,64.54
2019-04-14T16:36:01.756Z,64.53
2019-04-14T16:38:31.419Z,64.97
2019-04-14T16:41:01.151Z,65.86
2019-04-14T16:43:30.813Z,65.65
2019-04-14T16:46:00.584Z,65.49
2019-04-14T16:48:31.384Z,65.60
2019-04-14T16:51:01.141Z,65.54
2019-04-14T16:53:32.555Z,65.59
2019-04-14T16:56:04.234Z,65.95
2019-04-14T16:58:38.314Z,66.08
2019-04-14T17:01:11.442Z,66.17
2019-04-14T17:03:44.451Z,66.21
2019-04-14T17:06:14.727Z,66.75
2019-04-14T17:08:44.649Z,66.64
2019-04-14T17:11:39.356Z,67.30
2019-04-14T17:14:13.407Z,67.64
2019-04-14T17:16:56.711Z,68.17
2019-04-14T17:19:30.865Z,69.03
2019-04-14T17:22:04.984Z,69.29
2019-04-14T17:24:54.725Z,69.55
2019-04-14T17:27:26.273Z,69.25
2019-04-14T17:30:09.811Z,69.82
2019-04-14T17:32:41.626Z,70.63
2019-04-14T17:35:19.698Z,71.13
2019-04-14T17:38:00.160Z,71.30
2019-04-14T17:40:34.866Z,71.81
2019-04-14T17:43:07.076Z,72.15
2019-04-14T17:45:41.480Z,72.28
2019-04-14T17:48:16.123Z,72.45
2019-04-14T17:50:50.497Z,73.36
2019-04-14T17:53:33.581Z,73.43
2019-04-14T17:56:23.485Z,73.66
2019-04-14T17:58:57.725Z,74.00
2019-04-14T18:01:44.008Z,74.48
2019-04-14T18:04:25.705Z,74.56
2019-04-14T18:07:01.141Z,75.00
2019-04-14T18:09:38.651Z,74.87
2019-04-14T18:12:10.265Z,75.47
2019-04-14T18:14:50.563Z,75.47
2019-04-14T18:17:31.350Z,75.34
2019-04-14T18:20:15.138Z,75.14
2019-04-14T18:22:44.908Z,75.37
2019-04-14T18:25:14.804Z,75.13
2019-04-14T18:27:51.986Z,75.07
2019-04-14T18:30:26.459Z,74.79
2019-04-14T18:33:03.880Z,74.74
2019-04-14T18:35:35.447Z,74.57
2019-04-14T18:38:12.640Z,74.80
2019-04-14T18:40:55.715Z,75.06
2019-04-14T18:43:29.838Z,74.21
2019-04-14T18:46:01.736Z,73.92
2019-04-14T18:48:41.892Z,74.20
2019-04-14T18:51:25.396Z,74.34
2019-04-14T18:53:56.902Z,74.19
2019-04-14T18:56:28.293Z,74.05
2019-04-14T18:59:02.720Z,73.31
2019-04-14T19:01:34.108Z,73.62
2019-04-14T19:04:03.804Z,73.75
2019-04-14T19:06:33.472Z,73.82
2019-04-14T19:09:03.603Z,73.77
2019-04-14T19:11:34.936Z,73.65
2019-04-14T19:14:06.248Z,73.81
2019-04-14T19:16:43.217Z,74.37
2019-04-14T19:19:12.895Z,73.33
2019-04-14T19:21:42.583Z,73.93
2019-04-14T19:24:12.258Z,73.42
2019-04-14T19:26:41.949Z,73.43
2019-04-14T19:29:11.684Z,73.85
2019-04-14T19:31:41.569Z,72.96
2019-04-14T19:34:11.261Z,73.43
2019-04-14T19:36:40.953Z,73.43
2019-04-14T19:39:10.782Z,73.41
2019-04-14T19:41:40.479Z,73.52
2019-04-14T19:44:10.167Z,73.91
2019-04-14T19:46:41.058Z,74.16
2019-04-14T19:49:10.836Z,74.15
2019-04-14T19:51:40.525Z,74.40
2019-04-14T19:54:10.282Z,74.88
2019-04-14T19:56:39.974Z,74.77
2019-04-14T19:59:09.665Z,75.26
2019-04-14T20:01:39.420Z,75.20
2019-04-14T20:04:09.238Z,75.30
2019-04-14T20:06:38.948Z,75.55
2019-04-14T20:09:08.741Z,75.71
2019-04-14T20:11:38.535Z,76.17
2019-04-14T20:14:08.467Z,76.17
2019-04-14T20:16:46.023Z,76.33
2019-04-14T20:19:17.397Z,76.77
2019-04-14T20:22:04.020Z,76.71
2019-04-14T20:24:47.272Z,76.93
2019-04-14T20:27:18.590Z,77.05
2019-04-14T20:29:49.950Z,77.28
2019-04-14T20:32:24.279Z,77.37
2019-04-14T20:34:53.951Z,77.05
2019-04-14T20:37:23.637Z,77.31
2019-04-14T20:39:53.370Z,77.66
2019-04-14T20:42:23.061Z,77.72
2019-04-14T20:44:52.733Z,77.51
2019-04-14T20:47:26.358Z,77.39
2019-04-14T20:49:56.018Z,77.61
2019-04-14T20:52:29.260Z,77.61
2019-04-14T20:55:00.538Z,77.60
2019-04-14T20:57:30.254Z,77.87
2019-04-14T20:59:59.920Z,77.14
2019-04-14T21:02:31.258Z,77.09
2019-04-14T21:05:18.568Z,77.20
2019-04-14T21:07:49.906Z,77.20
2019-04-14T21:10:24.106Z,77.07
2019-04-14T21:13:07.419Z,77.32
2019-04-14T21:15:41.991Z,77.08
2019-04-14T21:18:16.365Z,77.43
2019-04-14T21:20:53.616Z,77.12
2019-04-14T21:23:24.975Z,76.96
2019-04-14T21:26:05.108Z,77.06
2019-04-14T21:28:39.708Z,77.08
2019-04-14T21:31:11.119Z,77.19
2019-04-14T21:33:57.347Z,76.82
2019-04-14T21:36:31.653Z,77.35
2019-04-14T21:39:18.103Z,76.96
2019-04-14T21:41:49.474Z,76.96
2019-04-14T21:44:19.423Z,76.77
2019-04-14T21:46:57.559Z,77.01
2019-04-14T21:49:27.441Z,76.91
2019-04-14T21:52:04.905Z,77.30
2019-04-14T21:54:34.674Z,77.39
2019-04-14T21:57:08.247Z,77.51
2019-04-14T21:59:55.720Z,77.29
2019-04-14T22:02:43.367Z,77.36
2019-04-14T22:05:30.961Z,77.55
2019-04-14T22:08:11.178Z,77.40
2019-04-14T22:10:51.708Z,77.44
2019-04-14T22:13:21.408Z,77.71
2019-04-14T22:15:51.163Z,77.66
2019-04-14T22:18:20.900Z,77.03
2019-04-14T22:20:50.591Z,77.26
2019-04-14T22:23:20.363Z,77.70
2019-04-14T22:25:50.057Z,77.86
2019-04-14T22:28:19.830Z,77.72
2019-04-14T22:30:49.493Z,77.89
2019-04-14T22:33:19.262Z,77.15
2019-04-14T22:35:48.935Z,77.31
2019-04-14T22:38:18.777Z,77.84
2019-04-14T22:40:48.474Z,77.79
2019-04-14T22:43:18.207Z,77.47
2019-04-14T22:45:47.902Z,77.47
2019-04-14T22:48:17.783Z,77.58
2019-04-14T22:50:47.465Z,77.73
2019-04-14T22:53:17.269Z,77.51
2019-04-14T22:55:47.065Z,77.67
2019-04-14T22:58:16.833Z,78.07
2019-04-14T23:00:57.307Z,77.96
2019-04-14T23:03:45.011Z,77.90
2019-04-14T23:06:28.530Z,77.74
2019-04-14T23:09:16.234Z,78.23
2019-04-14T23:11:47.632Z,78.54
2019-04-14T23:14:27.949Z,78.87
2019-04-14T23:17:14.172Z,78.79
2019-04-14T23:19:45.522Z,78.98
2019-04-14T23:22:32.157Z,78.62
2019-04-14T23:25:02.091Z,78.71
2019-04-14T23:27:31.923Z,78.58
2019-04-14T23:30:01.758Z,78.23
2019-04-14T23:32:31.520Z,77.94
2019-04-14T23:35:01.440Z,78.12
2019-04-14T23:37:31.253Z,78.25
2019-04-14T23:40:00.991Z,78.12
2019-04-14T23:42:30.940Z,78.44
2019-04-14T23:47:57.098Z,77.89
2019-04-14T23:50:26.814Z,78.11
2019-04-14T23:52:56.486Z,78.17
2019-04-14T23:55:26.172Z,78.33
2019-04-14T23:57:55.865Z,78.38
